createdAt,value
2018-09-19T00:00:35.096Z,87.96
2018-09-19T00:01:15.894Z,88.06
2018-09-19T00:01:56.655Z,87.96
2018-09-19T00:02:37.377Z,88.06
2018-09-19T00:03:18.093Z,88.16
2018-09-19T00:03:58.881Z,87.96
2018-09-19T00:04:39.703Z,88.06
2018-09-19T00:05:20.452Z,87.96
2018-09-19T00:06:01.180Z,88.26
2018-09-19T00:06:42.020Z,88.06
2018-09-19T00:07:22.783Z,87.87
2018-09-19T00:08:03.590Z,87.96
2018-09-19T00:08:44.332Z,87.96
2018-09-19T00:09:25.127Z,87.96
2018-09-19T00:10:05.895Z,87.87
2018-09-19T00:10:46.691Z,88.06
2018-09-19T00:11:27.437Z,88.26
2018-09-19T00:12:08.359Z,88.16
2018-09-19T00:12:49.057Z,88.06
2018-09-19T00:13:29.822Z,88.16
2018-09-19T00:14:10.641Z,88.26
2018-09-19T00:14:51.434Z,88.06
2018-09-19T00:15:32.194Z,87.77
2018-09-19T00:16:12.924Z,87.77
2018-09-19T00:16:53.679Z,87.77
2018-09-19T00:17:34.532Z,87.68
2018-09-19T00:18:15.391Z,88.06
2018-09-19T00:18:56.192Z,88.26
2018-09-19T00:19:36.938Z,87.87
2018-09-19T00:20:17.863Z,87.87
2018-09-19T00:20:58.462Z,87.87
2018-09-19T00:21:39.261Z,87.68
2018-09-19T00:22:20.023Z,88.26
2018-09-19T00:23:00.761Z,88.06
2018-09-19T00:23:41.539Z,87.87
2018-09-19T00:24:22.324Z,88.16
2018-09-19T00:25:03.167Z,88.06
2018-09-19T00:25:43.888Z,88.16
2018-09-19T00:26:24.693Z,88.06
2018-09-19T00:27:05.469Z,87.96
2018-09-19T00:27:46.218Z,87.77
2018-09-19T00:28:26.947Z,87.77
2018-09-19T00:29:07.703Z,87.87
2018-09-19T00:29:48.411Z,88.26
2018-09-19T00:30:29.233Z,88.06
2018-09-19T00:31:10.004Z,88.45
2018-09-19T00:31:50.762Z,88.16
2018-09-19T00:32:31.546Z,88.65
2018-09-19T00:33:12.308Z,89.13
2018-09-19T00:33:53.129Z,88.93
2018-09-19T00:34:33.872Z,88.41
2018-09-19T00:35:14.621Z,88.89
2018-09-19T00:35:55.366Z,88.6
2018-09-19T00:36:36.193Z,88.74
2018-09-19T00:37:17.036Z,88.93
2018-09-19T00:37:57.866Z,88.74
2018-09-19T00:38:38.671Z,89.28
2018-09-19T00:39:19.393Z,88.99
2018-09-19T00:40:00.203Z,89.32
2018-09-19T00:40:40.984Z,88.99
2018-09-19T00:41:21.788Z,89.32
2018-09-19T00:42:02.541Z,89.09
2018-09-19T00:42:43.262Z,89.13
2018-09-19T00:43:24.076Z,89.37
2018-09-19T00:44:04.883Z,89.37
2018-09-19T00:44:45.668Z,89.18
2018-09-19T00:45:26.411Z,89.52
2018-09-19T00:46:07.131Z,89.47
2018-09-19T00:46:47.871Z,89.37
2018-09-19T00:47:28.673Z,89.67
2018-09-19T00:48:09.453Z,89.42
2018-09-19T00:48:50.229Z,89.47
2018-09-19T00:49:30.996Z,89.67
2018-09-19T00:50:11.790Z,89.76
2018-09-19T00:50:52.667Z,89.28
2018-09-19T00:51:33.441Z,89.37
2018-09-19T00:52:14.252Z,89.23
2018-09-19T00:52:54.879Z,89.09
2018-09-19T00:53:35.618Z,89.76
2018-09-19T00:54:16.418Z,89.76
2018-09-19T00:54:57.163Z,89.71
2018-09-19T00:55:37.942Z,89.67
2018-09-19T00:56:18.757Z,89.09
2018-09-19T00:56:59.463Z,89.37
2018-09-19T00:57:40.314Z,89.37
2018-09-19T00:58:21.082Z,89.47
2018-09-19T00:59:01.855Z,89.96
2018-09-19T00:59:42.609Z,89.67
2018-09-19T01:00:23.319Z,89.67
2018-09-19T01:01:04.160Z,89.47
2018-09-19T01:01:44.874Z,89.67
2018-09-19T01:02:25.609Z,89.67
2018-09-19T01:03:06.456Z,89.52
2018-09-19T01:03:47.254Z,89.57
2018-09-19T01:04:28.013Z,89.86
2018-09-19T01:05:08.739Z,89.96
2018-09-19T01:05:49.488Z,89.67
2018-09-19T01:06:30.386Z,89.96
2018-09-19T01:07:11.180Z,89.67
2018-09-19T01:07:51.888Z,89.57
2018-09-19T01:08:32.635Z,89.57
2018-09-19T01:09:13.416Z,89.67
2018-09-19T01:09:54.189Z,89.76
2018-09-19T01:10:35.021Z,89.76
2018-09-19T01:11:15.831Z,89.57
2018-09-19T01:11:56.571Z,89.57
2018-09-19T01:12:37.390Z,89.57
2018-09-19T01:13:18.133Z,90.06
2018-09-19T01:13:58.954Z,89.86
2018-09-19T01:14:39.758Z,89.86
2018-09-19T01:15:20.489Z,89.96
2018-09-19T01:16:01.265Z,89.86
2018-09-19T01:16:42.064Z,89.96
2018-09-19T01:17:22.883Z,89.86
2018-09-19T01:18:03.684Z,90.16
2018-09-19T01:18:44.397Z,90.25
2018-09-19T01:19:25.245Z,90.25
2018-09-19T01:20:05.977Z,90.34
2018-09-19T01:20:46.707Z,90.34
2018-09-19T01:21:27.438Z,90.06
2018-09-19T01:22:08.162Z,90.16
2018-09-19T01:22:49.002Z,90.06
2018-09-19T01:23:29.774Z,89.96
2018-09-19T01:24:10.512Z,89.47
2018-09-19T01:24:51.391Z,89.96
2018-09-19T01:25:32.160Z,89.76
2018-09-19T01:26:12.977Z,89.96
2018-09-19T01:26:53.733Z,89.96
2018-09-19T01:27:34.440Z,89.67
2018-09-19T01:28:15.176Z,89.57
2018-09-19T01:28:55.882Z,89.96
2018-09-19T01:29:36.703Z,90.34
2018-09-19T01:30:17.589Z,89.86
2018-09-19T01:30:58.347Z,89.86
2018-09-19T01:31:39.056Z,90.34
2018-09-19T01:32:19.807Z,90.34
2018-09-19T01:33:00.633Z,90.34
2018-09-19T01:33:41.304Z,89.76
2018-09-19T01:34:22.028Z,89.86
2018-09-19T01:35:02.737Z,90.34
2018-09-19T01:35:43.574Z,90.16
2018-09-19T01:36:24.333Z,90.16
2018-09-19T01:37:05.096Z,90.16
2018-09-19T01:37:45.862Z,90.54
2018-09-19T01:38:26.650Z,90.06
2018-09-19T01:39:07.492Z,90.54
2018-09-19T01:39:48.264Z,90.64
2018-09-19T01:40:29.043Z,90.64
2018-09-19T01:41:09.885Z,90.16
2018-09-19T01:41:50.635Z,90.44
2018-09-19T01:42:31.407Z,90.54
2018-09-19T01:43:12.125Z,90.93
2018-09-19T01:43:52.916Z,91.02
2018-09-19T01:44:33.732Z,90.83
2018-09-19T01:45:14.516Z,90.83
2018-09-19T01:45:55.303Z,90.64
2018-09-19T01:46:36.036Z,90.64
2018-09-19T01:47:16.824Z,90.83
2018-09-19T01:47:57.578Z,90.73
2018-09-19T01:48:38.395Z,90.73
2018-09-19T01:49:19.232Z,90.64
2018-09-19T01:49:59.996Z,90.64
2018-09-19T01:50:40.747Z,90.73
2018-09-19T01:51:21.554Z,90.64
2018-09-19T01:52:02.369Z,90.83
2018-09-19T01:52:43.180Z,90.83
2018-09-19T01:53:23.948Z,90.54
2018-09-19T01:54:04.693Z,90.83
2018-09-19T01:54:45.473Z,90.83
2018-09-19T01:55:26.275Z,90.64
2018-09-19T01:56:07.058Z,90.64
2018-09-19T01:56:47.888Z,91.02
2018-09-19T01:57:28.652Z,91.12
2018-09-19T01:58:09.419Z,91.02
2018-09-19T01:58:50.227Z,90.93
2018-09-19T01:59:30.934Z,90.83
2018-09-19T02:00:11.635Z,90.54
2018-09-19T02:00:52.349Z,90.73
2018-09-19T02:01:33.097Z,90.54
2018-09-19T02:02:13.942Z,90.44
2018-09-19T02:02:54.744Z,90.44
2018-09-19T02:03:35.495Z,90.44
2018-09-19T02:04:16.225Z,90.34
2018-09-19T02:04:56.955Z,90.73
2018-09-19T02:05:37.693Z,90.64
2018-09-19T02:06:18.503Z,90.44
2018-09-19T02:06:59.262Z,90.64
2018-09-19T02:07:40.010Z,90.64
2018-09-19T02:08:20.868Z,90.64
2018-09-19T02:09:01.639Z,90.06
2018-09-19T02:09:42.471Z,90.25
2018-09-19T02:10:23.215Z,90.64
2018-09-19T02:11:03.915Z,90.44
2018-09-19T02:11:44.759Z,90.16
2018-09-19T02:12:25.493Z,90.16
2018-09-19T02:13:06.221Z,90.06
2018-09-19T02:13:46.943Z,90.16
2018-09-19T02:14:27.741Z,90.34
2018-09-19T02:15:08.546Z,90.34
2018-09-19T02:15:49.292Z,90.34
2018-09-19T02:16:30.055Z,90.06
2018-09-19T02:17:10.922Z,90.34
2018-09-19T02:17:51.702Z,89.47
2018-09-19T02:18:32.543Z,89.86
2018-09-19T02:19:13.260Z,89.86
2018-09-19T02:19:54.014Z,89.67
2018-09-19T02:20:34.777Z,89.96
2018-09-19T02:21:15.620Z,89.86
2018-09-19T02:21:56.344Z,89.57
2018-09-19T02:22:37.186Z,89.67
2018-09-19T02:23:17.974Z,90.06
2018-09-19T02:23:58.725Z,90.06
2018-09-19T02:24:39.557Z,90.06
2018-09-19T02:25:20.356Z,89.96
2018-09-19T02:26:01.087Z,89.67
2018-09-19T02:26:41.847Z,89.67
2018-09-19T02:27:22.600Z,89.57
2018-09-19T02:28:03.452Z,89.67
2018-09-19T02:28:44.317Z,89.96
2018-09-19T02:29:25.116Z,89.67
2018-09-19T02:30:05.970Z,89.67
2018-09-19T02:30:46.668Z,90.06
2018-09-19T02:31:27.407Z,89.57
2018-09-19T02:32:08.139Z,89.57
2018-09-19T02:32:48.950Z,89.67
2018-09-19T02:33:29.666Z,89.76
2018-09-19T02:34:10.424Z,89.86
2018-09-19T02:34:51.229Z,89.86
2018-09-19T02:35:32.024Z,90.34
2018-09-19T02:36:12.821Z,90.16
2018-09-19T02:36:53.577Z,89.67
2018-09-19T02:37:34.329Z,89.96
2018-09-19T02:38:15.120Z,89.96
2018-09-19T02:38:55.971Z,89.57
2018-09-19T02:39:36.770Z,89.57
2018-09-19T02:40:17.618Z,89.18
2018-09-19T02:40:58.353Z,89.67
2018-09-19T02:41:39.075Z,89.76
2018-09-19T02:42:19.895Z,89.57
2018-09-19T02:43:00.637Z,89.76
2018-09-19T02:43:41.425Z,89.86
2018-09-19T02:44:22.143Z,89.86
2018-09-19T02:45:02.923Z,89.76
2018-09-19T02:45:43.733Z,89.37
2018-09-19T02:46:24.466Z,89.67
2018-09-19T02:47:05.232Z,89.96
2018-09-19T02:47:46.045Z,89.67
2018-09-19T02:48:26.885Z,88.99
2018-09-19T02:49:07.738Z,89.76
2018-09-19T02:49:48.495Z,89.86
2018-09-19T02:50:29.233Z,89.18
2018-09-19T02:51:10.120Z,89.67
2018-09-19T02:51:50.901Z,89.18
2018-09-19T02:52:31.664Z,89.57
2018-09-19T02:53:12.385Z,88.99
2018-09-19T02:53:53.142Z,89.76
2018-09-19T02:54:33.994Z,89.67
2018-09-19T02:55:14.781Z,89.37
2018-09-19T02:55:55.567Z,89.37
2018-09-19T02:56:36.285Z,89.47
2018-09-19T02:57:16.992Z,89.47
2018-09-19T02:57:57.724Z,88.99
2018-09-19T02:58:38.559Z,89.47
2018-09-19T02:59:19.279Z,89.47
2018-09-19T03:00:00.001Z,89.47
2018-09-19T03:00:40.856Z,89.47
2018-09-19T03:01:21.653Z,89.67
2018-09-19T03:02:02.513Z,89.47
2018-09-19T03:02:43.272Z,89.37
2018-09-19T03:03:23.981Z,89.28
2018-09-19T03:04:04.719Z,89.37
2018-09-19T03:04:45.509Z,89.37
2018-09-19T03:05:26.308Z,88.79
2018-09-19T03:06:07.110Z,89.67
2018-09-19T03:06:47.873Z,89.37
2018-09-19T03:07:28.613Z,89.86
2018-09-19T03:08:09.411Z,89.57
2018-09-19T03:08:50.225Z,89.47
2018-09-19T03:09:30.935Z,89.37
2018-09-19T03:10:11.644Z,89.76
2018-09-19T03:10:52.376Z,89.76
2018-09-19T03:11:33.215Z,89.76
2018-09-19T03:12:14.011Z,89.28
2018-09-19T03:12:54.852Z,89.76
2018-09-19T03:13:35.619Z,89.47
2018-09-19T03:14:16.381Z,89.47
2018-09-19T03:14:57.164Z,89.86
2018-09-19T03:15:37.965Z,89.76
2018-09-19T03:16:18.804Z,89.76
2018-09-19T03:16:59.570Z,89.57
2018-09-19T03:17:40.485Z,89.28
2018-09-19T03:18:21.192Z,89.28
2018-09-19T03:19:02.016Z,89.18
2018-09-19T03:19:42.843Z,89.18
2018-09-19T03:20:23.574Z,88.99
2018-09-19T03:21:04.347Z,89.18
2018-09-19T03:21:45.160Z,89.09
2018-09-19T03:22:25.931Z,89.37
2018-09-19T03:23:06.651Z,88.51
2018-09-19T03:23:47.369Z,89.09
2018-09-19T03:24:28.160Z,89.18
2018-09-19T03:25:08.989Z,89.28
2018-09-19T03:25:49.728Z,89.09
2018-09-19T03:26:30.537Z,89.09
2018-09-19T03:27:11.328Z,89.37
2018-09-19T03:27:52.175Z,88.79
2018-09-19T03:28:32.942Z,89.18
2018-09-19T03:29:13.656Z,89.18
2018-09-19T03:29:54.405Z,88.89
2018-09-19T03:30:35.196Z,89.18
2018-09-19T03:31:16.034Z,89.37
2018-09-19T03:31:56.815Z,89.28
2018-09-19T03:32:37.728Z,89.37
2018-09-19T03:33:18.483Z,89.37
2018-09-19T03:33:59.251Z,88.7
2018-09-19T03:34:40.098Z,89.09
2018-09-19T03:35:20.864Z,89.28
2018-09-19T03:36:01.539Z,89.18
2018-09-19T03:36:42.244Z,89.18
2018-09-19T03:37:23.037Z,89.09
2018-09-19T03:38:03.860Z,89.09
2018-09-19T03:38:44.636Z,89.18
2018-09-19T03:39:25.433Z,88.99
2018-09-19T03:40:06.218Z,89.47
2018-09-19T03:40:47.008Z,89.86
2018-09-19T03:41:27.850Z,89.47
2018-09-19T03:42:08.599Z,89.18
2018-09-19T03:42:49.391Z,89.28
2018-09-19T03:43:30.220Z,89.28
2018-09-19T03:44:11.049Z,89.28
2018-09-19T03:44:51.866Z,89.18
2018-09-19T03:45:32.583Z,89.37
2018-09-19T03:46:13.433Z,88.79
2018-09-19T03:46:54.234Z,89.37
2018-09-19T03:47:35.028Z,89.28
2018-09-19T03:48:15.892Z,88.6
2018-09-19T03:48:56.618Z,88.7
2018-09-19T03:49:37.381Z,88.6
2018-09-19T03:50:18.126Z,88.79
2018-09-19T03:50:58.960Z,88.7
2018-09-19T03:51:39.709Z,88.6
2018-09-19T03:52:20.470Z,88.79
2018-09-19T03:53:01.276Z,88.7
2018-09-19T03:53:42.116Z,88.79
2018-09-19T03:54:23.014Z,88.6
2018-09-19T03:55:03.729Z,88.6
2018-09-19T03:55:44.456Z,88.7
2018-09-19T03:56:25.278Z,88.7
2018-09-19T03:57:06.017Z,88.89
2018-09-19T03:57:46.833Z,88.89
2018-09-19T03:58:27.586Z,88.79
2018-09-19T03:59:08.343Z,88.99
2018-09-19T03:59:49.185Z,88.79
2018-09-19T04:00:29.929Z,88.89
2018-09-19T04:01:10.716Z,88.79
2018-09-19T04:01:51.567Z,88.89
2018-09-19T04:02:32.435Z,88.89
2018-09-19T04:03:13.254Z,88.7
2018-09-19T04:03:53.978Z,88.7
2018-09-19T04:04:34.705Z,88.79
2018-09-19T04:05:15.449Z,88.89
2018-09-19T04:05:56.253Z,88.7
2018-09-19T04:06:37.082Z,88.79
2018-09-19T04:07:17.899Z,88.6
2018-09-19T04:07:58.623Z,88.79
2018-09-19T04:08:39.343Z,88.79
2018-09-19T04:09:20.132Z,88.7
2018-09-19T04:10:00.970Z,88.79
2018-09-19T04:10:41.709Z,88.89
2018-09-19T04:11:22.399Z,88.89
2018-09-19T04:12:03.187Z,88.6
2018-09-19T04:12:43.976Z,88.89
2018-09-19T04:13:24.790Z,88.89
2018-09-19T04:14:05.621Z,88.7
2018-09-19T04:14:46.365Z,88.7
2018-09-19T04:15:27.128Z,88.7
2018-09-19T04:16:07.873Z,88.89
2018-09-19T04:16:48.663Z,88.79
2018-09-19T04:17:29.515Z,88.7
2018-09-19T04:18:10.248Z,88.89
2018-09-19T04:18:51.050Z,88.7
2018-09-19T04:19:31.848Z,88.89
2018-09-19T04:20:12.640Z,88.79
2018-09-19T04:20:53.465Z,88.6
2018-09-19T04:21:34.230Z,88.7
2018-09-19T04:22:14.936Z,88.7
2018-09-19T04:22:55.766Z,88.79
2018-09-19T04:23:36.561Z,88.7
2018-09-19T04:24:17.338Z,88.79
2018-09-19T04:24:58.206Z,88.7
2018-09-19T04:25:38.861Z,88.89
2018-09-19T04:26:19.594Z,88.79
2018-09-19T04:27:00.428Z,88.7
2018-09-19T04:27:41.202Z,88.7
2018-09-19T04:28:21.926Z,88.89
2018-09-19T04:29:02.797Z,88.99
2018-09-19T04:29:43.624Z,88.79
2018-09-19T04:30:24.460Z,88.7
2018-09-19T04:31:05.197Z,88.41
2018-09-19T04:31:45.971Z,88.41
2018-09-19T04:32:26.897Z,88.41
2018-09-19T04:33:07.583Z,88.41
2018-09-19T04:33:48.404Z,88.89
2018-09-19T04:34:29.106Z,88.89
2018-09-19T04:35:09.937Z,88.41
2018-09-19T04:35:50.714Z,88.79
2018-09-19T04:36:31.504Z,88.6
2018-09-19T04:37:12.303Z,88.6
2018-09-19T04:37:53.046Z,88.7
2018-09-19T04:38:33.817Z,88.79
2018-09-19T04:39:14.726Z,88.6
2018-09-19T04:39:55.564Z,88.51
2018-09-19T04:40:36.353Z,88.99
2018-09-19T04:41:17.125Z,88.79
2018-09-19T04:41:57.912Z,88.7
2018-09-19T04:42:38.681Z,88.99
2018-09-19T04:43:19.516Z,88.6
2018-09-19T04:44:00.245Z,87.82
2018-09-19T04:44:41.061Z,88.7
2018-09-19T04:45:21.878Z,88.6
2018-09-19T04:46:02.612Z,88.7
2018-09-19T04:46:43.433Z,88.6
2018-09-19T04:47:24.153Z,88.7
2018-09-19T04:48:04.901Z,87.73
2018-09-19T04:48:45.614Z,88.7
2018-09-19T04:49:26.491Z,88.6
2018-09-19T04:50:07.242Z,88.7
2018-09-19T04:50:48.111Z,88.79
2018-09-19T04:51:28.873Z,87.92
2018-09-19T04:52:09.595Z,88.89
2018-09-19T04:52:50.605Z,88.99
2018-09-19T04:53:31.351Z,88.51
2018-09-19T04:54:12.074Z,88.41
2018-09-19T04:54:52.917Z,88.79
2018-09-19T04:55:33.666Z,88.51
2018-09-19T04:56:14.588Z,88.89
2018-09-19T04:56:55.381Z,88.7
2018-09-19T04:57:36.193Z,88.7
2018-09-19T04:58:16.941Z,88.6
2018-09-19T04:58:57.675Z,88.79
2018-09-19T04:59:38.430Z,88.6
2018-09-19T05:00:19.263Z,88.41
2018-09-19T05:01:00.012Z,88.79
2018-09-19T05:01:40.725Z,88.21
2018-09-19T05:02:21.474Z,88.21
2018-09-19T05:03:02.266Z,88.51
2018-09-19T05:03:43.083Z,87.82
2018-09-19T05:04:23.822Z,87.92
2018-09-19T05:05:04.543Z,88.02
2018-09-19T05:05:45.472Z,87.92
2018-09-19T05:06:26.225Z,88.51
2018-09-19T05:07:07.028Z,88.41
2018-09-19T05:07:47.725Z,87.82
2018-09-19T05:08:28.512Z,87.92
2018-09-19T05:09:09.355Z,87.92
2018-09-19T05:09:50.072Z,87.54
2018-09-19T05:10:30.818Z,87.82
2018-09-19T05:11:11.681Z,87.92
2018-09-19T05:11:52.453Z,88.02
2018-09-19T05:12:33.294Z,87.92
2018-09-19T05:13:14.029Z,88.12
2018-09-19T05:13:54.760Z,88.31
2018-09-19T05:14:35.507Z,87.92
2018-09-19T05:15:16.333Z,88.51
2018-09-19T05:15:57.169Z,87.54
2018-09-19T05:16:38.006Z,87.54
2018-09-19T05:17:18.770Z,88.21
2018-09-19T05:17:59.495Z,88.41
2018-09-19T05:18:40.309Z,87.44
2018-09-19T05:19:21.096Z,87.44
2018-09-19T05:20:01.904Z,87.34
2018-09-19T05:20:42.621Z,88.21
2018-09-19T05:21:23.359Z,87.24
2018-09-19T05:22:04.225Z,87.54
2018-09-19T05:22:44.989Z,87.15
2018-09-19T05:23:25.815Z,88.41
2018-09-19T05:24:06.539Z,87.24
2018-09-19T05:24:47.307Z,88.02
2018-09-19T05:25:28.017Z,88.12
2018-09-19T05:26:08.809Z,88.02
2018-09-19T05:26:49.564Z,87.34
2018-09-19T05:27:30.307Z,87.05
2018-09-19T05:28:11.171Z,87.54
2018-09-19T05:28:51.996Z,87.44
2018-09-19T05:29:32.840Z,87.44
2018-09-19T05:30:13.590Z,87.34
2018-09-19T05:30:54.367Z,87.34
2018-09-19T05:31:35.158Z,87.54
2018-09-19T05:32:15.889Z,88.41
2018-09-19T05:32:56.747Z,88.02
2018-09-19T05:33:37.526Z,87.82
2018-09-19T05:34:18.309Z,88.12
2018-09-19T05:34:59.025Z,88.41
2018-09-19T05:35:39.810Z,88.7
2018-09-19T05:36:20.657Z,88.79
2018-09-19T05:37:02.282Z,88.6
2018-09-19T05:37:42.994Z,88.7
2018-09-19T05:38:23.734Z,88.6
2018-09-19T05:39:04.513Z,88.6
2018-09-19T05:39:45.348Z,88.41
2018-09-19T05:40:26.115Z,88.6
2018-09-19T05:41:06.879Z,88.51
2018-09-19T05:41:47.710Z,88.89
2018-09-19T05:42:28.505Z,88.99
2018-09-19T05:43:09.308Z,88.41
2018-09-19T05:43:50.025Z,88.41
2018-09-19T05:44:30.878Z,88.89
2018-09-19T05:45:11.720Z,88.7
2018-09-19T05:45:52.473Z,88.21
2018-09-19T05:46:33.314Z,88.6
2018-09-19T05:47:13.952Z,88.02
2018-09-19T05:47:54.756Z,88.79
2018-09-19T05:48:35.564Z,88.79
2018-09-19T05:49:16.407Z,88.79
2018-09-19T05:49:57.236Z,88.6
2018-09-19T05:50:37.976Z,88.7
2018-09-19T05:51:18.807Z,88.6
2018-09-19T05:51:59.620Z,88.79
2018-09-19T05:52:40.408Z,88.7
2018-09-19T05:53:21.157Z,88.99
2018-09-19T05:54:01.864Z,88.99
2018-09-19T05:54:42.737Z,88.89
2018-09-19T05:55:23.507Z,88.6
2018-09-19T05:56:04.321Z,88.6
2018-09-19T05:56:45.040Z,88.89
2018-09-19T05:57:25.863Z,88.51
2018-09-19T05:58:06.678Z,88.99
2018-09-19T05:58:47.422Z,89.09
2018-09-19T05:59:28.160Z,88.79
2018-09-19T06:00:08.866Z,88.79
2018-09-19T06:00:49.676Z,88.51
2018-09-19T06:01:30.456Z,88.79
2018-09-19T06:02:11.237Z,88.6
2018-09-19T06:02:52.043Z,88.89
2018-09-19T06:03:32.876Z,88.41
2018-09-19T06:04:13.731Z,88.51
2018-09-19T06:04:54.604Z,88.6
2018-09-19T06:05:35.279Z,88.51
2018-09-19T06:06:16.007Z,88.99
2018-09-19T06:06:56.718Z,89.37
2018-09-19T06:07:37.543Z,88.99
2018-09-19T06:08:18.377Z,89.09
2018-09-19T06:08:59.169Z,88.89
2018-09-19T06:09:39.907Z,89.76
2018-09-19T06:10:20.683Z,89.86
2018-09-19T06:11:01.553Z,89.57
2018-09-19T06:11:42.328Z,89.76
2018-09-19T06:12:23.080Z,89.28
2018-09-19T06:13:03.853Z,89.28
2018-09-19T06:13:44.682Z,88.7
2018-09-19T06:14:25.506Z,88.89
2018-09-19T06:15:06.305Z,88.41
2018-09-19T06:15:47.104Z,88.51
2018-09-19T06:16:28.132Z,88.6
2018-09-19T06:17:09.008Z,88.51
2018-09-19T06:17:49.858Z,88.21
2018-09-19T06:18:30.793Z,87.82
2018-09-19T06:19:11.564Z,87.92
2018-09-19T06:19:52.474Z,87.82
2018-09-19T06:20:33.284Z,87.82
2018-09-19T06:21:14.143Z,87.82
2018-09-19T06:21:54.880Z,88.12
2018-09-19T06:22:35.738Z,87.15
2018-09-19T06:23:16.619Z,87.15
2018-09-19T06:23:57.430Z,88.31
2018-09-19T06:24:38.230Z,87.34
2018-09-19T06:25:19.007Z,86.66
2018-09-19T06:25:59.756Z,87.05
2018-09-19T06:26:40.513Z,86.95
2018-09-19T06:27:21.340Z,87.24
2018-09-19T06:28:02.115Z,87.09
2018-09-19T06:28:42.888Z,87.24
2018-09-19T06:29:23.692Z,86.76
2018-09-19T06:30:04.490Z,86.61
2018-09-19T06:30:45.265Z,86.66
2018-09-19T06:31:26.008Z,86.86
2018-09-19T06:32:06.792Z,87.24
2018-09-19T06:32:47.577Z,87.05
2018-09-19T06:33:28.406Z,86.9
2018-09-19T06:34:09.111Z,86.99
2018-09-19T06:34:49.951Z,86.71
2018-09-19T06:35:30.714Z,86.99
2018-09-19T06:36:11.484Z,87.19
2018-09-19T06:36:52.352Z,86.12
2018-09-19T06:37:33.155Z,85.93
2018-09-19T06:38:13.929Z,85.19
2018-09-19T06:38:54.671Z,83.53
2018-09-19T06:39:35.456Z,82.4
2018-09-19T06:40:16.346Z,80.6
2018-09-19T06:40:57.136Z,79.63
2018-09-19T06:41:37.871Z,78.4
2018-09-19T06:42:18.675Z,78.79
2018-09-19T06:42:59.409Z,79.38
2018-09-19T06:43:40.141Z,79.28
2018-09-19T06:44:20.912Z,79.14
2018-09-19T06:45:01.703Z,78.75
2018-09-19T06:45:42.543Z,79.43
2018-09-19T06:46:23.280Z,79.24
2018-09-19T06:47:04.155Z,79.18
2018-09-19T06:47:44.911Z,78.11
2018-09-19T06:48:25.725Z,78.11
2018-09-19T06:49:06.501Z,77.72
2018-09-19T06:49:47.301Z,78.3
2018-09-19T06:50:28.101Z,77.91
2018-09-19T06:51:08.885Z,78.11
2018-09-19T06:51:49.654Z,78.11
2018-09-19T06:52:30.400Z,78.46
2018-09-19T06:53:11.186Z,78.85
2018-09-19T06:53:51.997Z,79.24
2018-09-19T06:54:32.821Z,78.36
2018-09-19T06:55:13.627Z,78.36
2018-09-19T06:55:54.405Z,78.46
2018-09-19T06:56:35.223Z,78.75
2018-09-19T06:57:16.021Z,78.46
2018-09-19T06:57:56.782Z,78.46
2018-09-19T06:58:37.534Z,78.75
2018-09-19T06:59:18.308Z,78.75
2018-09-19T06:59:59.127Z,78.46
2018-09-19T07:00:39.983Z,78.56
2018-09-19T07:01:20.784Z,78.94
2018-09-19T07:02:01.545Z,78.56
2018-09-19T07:02:42.289Z,78.56
2018-09-19T07:03:23.097Z,78.85
2018-09-19T07:04:03.804Z,78.75
2018-09-19T07:04:44.577Z,78.36
2018-09-19T07:05:25.312Z,78.75
2018-09-19T07:06:06.133Z,78.66
2018-09-19T07:06:46.951Z,79.53
2018-09-19T07:07:27.718Z,78.94
2018-09-19T07:08:08.574Z,79.2
2018-09-19T07:08:49.291Z,79.33
2018-09-19T07:09:30.020Z,79.49
2018-09-19T07:10:10.781Z,79.43
2018-09-19T07:10:51.575Z,79.2
2018-09-19T07:11:32.397Z,79.78
2018-09-19T07:12:13.158Z,79.59
2018-09-19T07:12:53.904Z,79.39
2018-09-19T07:13:34.737Z,79.49
2018-09-19T07:14:15.508Z,79.39
2018-09-19T07:14:56.273Z,79.97
2018-09-19T07:15:37.015Z,80.07
2018-09-19T07:16:17.778Z,80.56
2018-09-19T07:16:58.559Z,80.71
2018-09-19T07:17:39.378Z,80.32
2018-09-19T07:18:20.205Z,80.36
2018-09-19T07:19:01.146Z,80.42
2018-09-19T07:19:41.793Z,80.23
2018-09-19T07:20:22.516Z,80.23
2018-09-19T07:21:03.357Z,80.23
2018-09-19T07:21:44.073Z,80.52
2018-09-19T07:22:24.828Z,80.42
2018-09-19T07:23:05.590Z,80.81
2018-09-19T07:23:46.397Z,81.01
2018-09-19T07:24:27.174Z,81.01
2018-09-19T07:25:08.000Z,80.71
2018-09-19T07:25:48.721Z,80.62
2018-09-19T07:26:29.621Z,80.71
2018-09-19T07:27:10.448Z,80.81
2018-09-19T07:27:51.259Z,80.91
2018-09-19T07:28:32.013Z,81.2
2018-09-19T07:29:12.762Z,81.1
2018-09-19T07:29:53.643Z,81.39
2018-09-19T07:30:34.329Z,81.35
2018-09-19T07:31:15.106Z,81.2
2018-09-19T07:31:55.769Z,81.59
2018-09-19T07:32:36.556Z,81.88
2018-09-19T07:33:17.401Z,81.88
2018-09-19T07:33:58.180Z,81.78
2018-09-19T07:34:38.928Z,81.74
2018-09-19T07:35:19.742Z,81.84
2018-09-19T07:36:00.458Z,82.07
2018-09-19T07:36:41.195Z,82.13
2018-09-19T07:37:22.028Z,81.93
2018-09-19T07:38:02.783Z,82.23
2018-09-19T07:38:43.526Z,81.84
2018-09-19T07:39:24.336Z,82.03
2018-09-19T07:40:05.196Z,81.84
2018-09-19T07:40:45.966Z,81.93
2018-09-19T07:41:26.694Z,81.93
2018-09-19T07:42:07.416Z,82.03
2018-09-19T07:42:48.188Z,82.52
2018-09-19T07:43:28.972Z,82.23
2018-09-19T07:44:09.802Z,82.52
2018-09-19T07:44:50.611Z,82.71
2018-09-19T07:45:31.378Z,82.52
2018-09-19T07:46:12.104Z,82.03
2018-09-19T07:46:52.918Z,82.62
2018-09-19T07:47:33.699Z,82.62
2018-09-19T07:48:14.462Z,82.71
2018-09-19T07:48:55.198Z,82.52
2018-09-19T07:49:35.970Z,82.71
2018-09-19T07:50:16.800Z,82.52
2018-09-19T07:50:57.610Z,82.71
2018-09-19T07:51:38.454Z,82.42
2018-09-19T07:52:19.208Z,82.42
2018-09-19T07:52:59.975Z,82.52
2018-09-19T07:53:40.720Z,82.42
2018-09-19T07:54:21.571Z,82.62
2018-09-19T07:55:02.342Z,82.62
2018-09-19T07:55:43.078Z,83
2018-09-19T07:56:23.865Z,82.62
2018-09-19T07:57:04.734Z,82.62
2018-09-19T07:57:45.546Z,82.62
2018-09-19T07:58:26.306Z,82.62
2018-09-19T07:59:07.091Z,82.23
2018-09-19T07:59:47.883Z,82.52
2018-09-19T08:00:28.719Z,82.32
2018-09-19T08:01:09.586Z,82.71
2018-09-19T08:01:50.180Z,82.62
2018-09-19T08:02:30.936Z,82.71
2018-09-19T08:03:11.740Z,82.57
2018-09-19T08:03:52.493Z,82.81
2018-09-19T08:04:33.212Z,82.9
2018-09-19T08:05:14.031Z,83.1
2018-09-19T08:05:54.935Z,82.81
2018-09-19T08:06:35.750Z,82.81
2018-09-19T08:07:16.484Z,82.62
2018-09-19T08:07:57.232Z,82.81
2018-09-19T08:08:37.986Z,82.57
2018-09-19T08:09:18.797Z,82.38
2018-09-19T08:09:59.571Z,82.57
2018-09-19T08:10:40.325Z,82.52
2018-09-19T08:11:21.088Z,82.57
2018-09-19T08:12:01.849Z,82.28
2018-09-19T08:12:42.640Z,82.28
2018-09-19T08:13:23.559Z,82.38
2018-09-19T08:14:04.361Z,82.62
2018-09-19T08:14:45.114Z,82.57
2018-09-19T08:15:25.835Z,82.57
2018-09-19T08:16:06.684Z,82.67
2018-09-19T08:16:47.508Z,82.81
2018-09-19T08:17:28.202Z,82.77
2018-09-19T08:18:08.993Z,82.67
2018-09-19T08:18:49.789Z,82.38
2018-09-19T08:19:30.655Z,82.48
2018-09-19T08:20:11.411Z,82.28
2018-09-19T08:20:52.201Z,82.97
2018-09-19T08:21:32.985Z,82.67
2018-09-19T08:22:13.750Z,82.48
2018-09-19T08:22:54.541Z,82.48
2018-09-19T08:23:35.283Z,82.62
2018-09-19T08:24:16.027Z,82.48
2018-09-19T08:24:56.941Z,82.57
2018-09-19T08:25:37.802Z,82.48
2018-09-19T08:26:18.616Z,82.67
2018-09-19T08:26:59.343Z,82.87
2018-09-19T08:27:40.054Z,82.67
2018-09-19T08:28:20.819Z,82.97
2018-09-19T08:29:01.585Z,82.87
2018-09-19T08:29:42.398Z,82.97
2018-09-19T08:30:23.124Z,82.97
2018-09-19T08:31:03.966Z,82.77
2018-09-19T08:31:44.825Z,82.97
2018-09-19T08:32:25.628Z,82.97
2018-09-19T08:33:06.396Z,82.67
2018-09-19T08:33:47.113Z,82.97
2018-09-19T08:34:27.903Z,82.67
2018-09-19T08:35:08.722Z,82.77
2018-09-19T08:35:49.502Z,82.77
2018-09-19T08:36:30.238Z,82.97
2018-09-19T08:37:10.987Z,82.77
2018-09-19T08:37:51.828Z,82.87
2018-09-19T08:38:32.574Z,82.87
2018-09-19T08:39:13.352Z,83.45
2018-09-19T08:39:54.120Z,83.06
2018-09-19T08:40:34.909Z,82.77
2018-09-19T08:41:15.715Z,82.87
2018-09-19T08:41:56.519Z,83.45
2018-09-19T08:42:37.259Z,83.35
2018-09-19T08:43:18.013Z,83.45
2018-09-19T08:43:58.782Z,83.54
2018-09-19T08:44:39.601Z,83.45
2018-09-19T08:45:20.448Z,83.54
2018-09-19T08:46:01.254Z,83.35
2018-09-19T08:46:42.001Z,83.15
2018-09-19T08:47:22.817Z,83.35